KTVF/TVF METAR and TAF weather

Enter ICAO airport designator
Station Type Date Time Source
KTVF METAR 2019/12/14 18:56 UTC NOAA

KTVF 141856Z AUTO 33011KT 10SM CLR M20/M23 A3005 RMK AO2 SLP213 T12001233 FZRANO


Station Type Date Time Source
KTVF Decoded METAR 2019/12/14 18:56 UTC NOAA

Thief River Falls, Thief River Falls Regional Airport, MN, United States (KTVF) 48-04N 096-11W
Dec 14, 2019 - 01:56 PM EST / 2019.12.14 1856 UTC
Wind: from the NNW (330 degrees) at 13 MPH (11 KT):0
Visibility: 10 mile(s):0
Sky conditions: clear
Temperature: -4.0 F (-20.0 C)
Windchill: -23 F (-31 C):2
Dew Point: -9.9 F (-23.3 C)
Relative Humidity: 74%
Pressure (altimeter): 30.05 in. Hg (1017 hPa)
ob: KTVF 141856Z AUTO 33011KT 10SM CLR M20/M23 A3005 RMK AO2 SLP213 T12001233 FZRANO
cycle: 19

Station Type Date Time Source
KTVF TAF 2019/12/14 18:36 UTC NOAA

TAF KTVF 141733Z 1418/1518 32010KT P6SM SKC
FM151300 19007KT P6SM OVC030
FM151700 20010KT P6SM BKN015

Example: see airport list